Time;durP1;ratioP1;P1;durP2;ratioP2;P2;SDS_P1;SDS_P2;PMS_P1;PMS_P2;Temp;Humidity;BMP_temperature;BMP_pressure;BME280_temperature;BME280_humidity;BME280_pressure;Samples;Min_cycle;Max_cycle;Signal;HPM_P1;HPM_P2
2022/05/22 00:01:34;;;;;;;3.10;1.70;;;25.00;38.10;;;;;;5140626;27;20034;-40
2022/05/22 00:04:00;;;;;;;2.85;1.65;;;25.00;38.20;;;;;;5139524;27;20032;-44
2022/05/22 00:06:26;;;;;;;3.83;1.88;;;25.00;38.20;;;;;;5141671;27;20094;-44
2022/05/22 00:08:53;;;;;;;3.72;1.95;;;25.00;38.30;;;;;;5139596;27;20083;-41
2022/05/22 00:11:18;;;;;;;3.53;1.77;;;25.00;38.30;;;;;;5139702;27;20015;-39
2022/05/22 00:13:44;;;;;;;3.95;1.80;;;25.00;38.40;;;;;;5141817;27;20028;-41
2022/05/22 00:18:55;;;;;;;3.25;1.67;;;25.00;38.40;;;;;;5142719;27;20042;-41
2022/05/22 00:21:22;;;;;;;3.83;1.80;;;24.90;38.50;;;;;;5141334;27;20046;-42
2022/05/22 00:23:48;;;;;;;3.92;1.80;;;24.90;38.50;;;;;;5122422;27;20065;-40
2022/05/22 00:26:13;;;;;;;3.25;1.80;;;24.90;38.60;;;;;;5140488;27;20027;-43
2022/05/22 00:28:40;;;;;;;3.45;1.77;;;24.90;38.60;;;;;;5139685;27;20015;-41
2022/05/22 00:31:06;;;;;;;4.68;1.83;;;24.90;38.60;;;;;;5140188;27;20017;-42
2022/05/22 00:33:32;;;;;;;3.50;1.90;;;24.90;38.60;;;;;;5139327;27;20462;-40
2022/05/22 00:35:58;;;;;;;3.13;1.60;;;24.90;38.60;;;;;;5139347;27;20098;-40
2022/05/22 00:38:25;;;;;;;2.65;1.70;;;24.90;38.70;;;;;;5104529;27;20054;-39
2022/05/22 00:40:50;;;;;;;3.35;1.50;;;24.90;38.70;;;;;;5139993;27;20048;-42
2022/05/22 00:43:34;;;;;;;4.60;1.50;;;24.90;38.80;;;;;;5121356;27;20011;-42
2022/05/22 00:46:02;;;;;;;3.15;1.77;;;24.90;38.80;;;;;;5139330;27;20037;-40
2022/05/22 00:48:27;;;;;;;3.60;1.58;;;24.90;38.80;;;;;;5138530;27;20026;-41
2022/05/22 00:51:01;;;;;;;2.63;1.65;;;24.90;38.90;;;;;;5136763;27;20470;-39
2022/05/22 00:53:27;;;;;;;3.90;1.50;;;24.90;38.90;;;;;;5137572;27;20019;-40
2022/05/22 00:55:53;;;;;;;3.90;1.58;;;24.90;38.90;;;;;;5136617;27;20046;-40
2022/05/22 00:58:21;;;;;;;5.80;1.80;;;24.90;38.90;;;;;;5138314;27;20481;-41
2022/05/22 01:00:46;;;;;;;3.70;1.70;;;24.90;39.00;;;;;;5120127;27;20116;-40
2022/05/22 01:03:29;;;;;;;2.78;1.77;;;24.80;39.00;;;;;;5138648;27;20477;-44
2022/05/22 01:05:56;;;;;;;2.70;1.60;;;24.90;39.10;;;;;;5140205;27;20011;-43
2022/05/22 01:08:22;;;;;;;2.90;1.38;;;24.80;39.10;;;;;;5138979;27;20019;-41
2022/05/22 01:11:13;;;;;;;2.75;1.42;;;24.90;39.10;;;;;;5122197;27;20027;-44
2022/05/22 01:14:05;;;;;;;3.90;1.58;;;24.80;39.10;;;;;;5139986;27;20015;-41
2022/05/22 01:16:32;;;;;;;2.38;1.73;;;24.80;39.10;;;;;;5138529;27;20030;-40
2022/05/22 01:18:58;;;;;;;3.70;1.70;;;24.90;39.20;;;;;;5139500;27;20104;-42
2022/05/22 01:21:26;;;;;;;5.05;1.70;;;24.90;39.20;;;;;;5139947;27;20070;-42
2022/05/22 01:23:52;;;;;;;3.53;1.50;;;24.90;39.30;;;;;;5140128;27;20019;-40
2022/05/22 01:26:19;;;;;;;3.15;1.55;;;24.90;39.30;;;;;;5140384;27;20481;-41
2022/05/22 01:28:45;;;;;;;3.25;1.70;;;24.80;39.30;;;;;;5141294;27;20481;-46
2022/05/22 01:31:13;;;;;;;2.78;1.55;;;24.80;39.30;;;;;;5141000;27;20026;-40
2022/05/22 01:33:40;;;;;;;2.25;1.48;;;24.80;39.40;;;;;;5141569;27;20015;-41
2022/05/22 01:36:06;;;;;;;3.30;1.60;;;24.80;39.40;;;;;;5141423;27;20051;-46
2022/05/22 01:38:32;;;;;;;3.05;1.50;;;24.80;39.50;;;;;;5141550;27;20023;-40
2022/05/22 01:40:58;;;;;;;2.38;1.45;;;24.80;39.50;;;;;;5140210;27;20015;-42
2022/05/22 01:43:24;;;;;;;3.03;1.45;;;24.80;39.50;;;;;;5139994;27;20067;-44
2022/05/22 01:45:50;;;;;;;2.10;1.50;;;24.80;39.60;;;;;;5138168;27;20076;-47
2022/05/22 01:48:15;;;;;;;3.13;1.63;;;24.80;39.60;;;;;;5138436;28;20051;-41
2022/05/22 01:50:42;;;;;;;3.13;1.50;;;24.80;39.60;;;;;;5140678;27;20012;-40
2022/05/22 01:53:08;;;;;;;4.22;1.52;;;24.80;39.70;;;;;;5140363;27;20019;-43
2022/05/22 01:55:34;;;;;;;2.95;1.50;;;24.80;39.70;;;;;;5139259;28;20068;-41
2022/05/22 01:58:00;;;;;;;3.85;1.60;;;24.80;39.70;;;;;;5139828;28;20060;-44
2022/05/22 02:00:26;;;;;;;3.65;1.50;;;24.80;39.70;;;;;;5139176;28;20050;-46
2022/05/22 02:02:56;;;;;;;3.10;1.50;;;24.80;39.70;;;;;;5137517;28;20023;-41
2022/05/22 02:05:22;;;;;;;2.88;1.58;;;24.80;39.80;;;;;;5138555;27;20025;-39
2022/05/22 02:10:33;;;;;;;2.85;1.50;;;24.80;39.80;;;;;;5139412;28;20030;-42
2022/05/22 02:12:59;;;;;;;2.35;1.63;;;24.80;39.90;;;;;;5140502;28;20015;-44
2022/05/22 02:15:25;;;;;;;3.35;1.50;;;24.80;39.90;;;;;;5140798;28;20496;-43
2022/05/22 02:17:51;;;;;;;2.63;1.48;;;24.80;39.90;;;;;;5121496;28;20065;-45
2022/05/22 02:20:17;;;;;;;3.25;1.65;;;24.80;39.90;;;;;;5138721;28;20021;-43
2022/05/22 02:22:48;;;;;;;3.17;1.70;;;24.70;39.90;;;;;;5140098;27;20008;-41
2022/05/22 02:25:17;;;;;;;4.15;1.58;;;24.80;40.00;;;;;;5139252;27;20011;-42
2022/05/22 02:27:43;;;;;;;3.63;1.30;;;24.70;40.00;;;;;;5141372;27;20013;-40
2022/05/22 02:30:11;;;;;;;4.13;1.67;;;24.70;40.00;;;;;;5143513;27;20474;-41
2022/05/22 02:32:38;;;;;;;3.72;1.35;;;24.70;40.00;;;;;;5143244;27;20045;-44
2022/05/22 02:35:06;;;;;;;2.20;1.38;;;24.70;40.00;;;;;;5142893;27;20040;-42
2022/05/22 02:37:32;;;;;;;3.67;1.60;;;24.70;40.60;;;;;;5142801;27;20012;-45
2022/05/22 02:39:58;;;;;;;3.53;1.65;;;24.70;40.10;;;;;;5143561;27;20050;-45
2022/05/22 02:42:24;;;;;;;3.78;1.40;;;24.70;40.10;;;;;;5144415;27;20015;-41
2022/05/22 02:44:50;;;;;;;3.47;1.40;;;24.70;40.10;;;;;;5143087;27;20500;-41
2022/05/22 02:47:16;;;;;;;4.32;1.80;;;24.70;40.20;;;;;;5125118;27;20015;-42
2022/05/22 02:49:42;;;;;;;4.15;1.30;;;24.70;40.20;;;;;;5124808;27;20033;-41
2022/05/22 02:52:09;;;;;;;3.65;1.65;;;24.70;40.20;;;;;;5141704;27;20031;-43
2022/05/22 02:54:35;;;;;;;3.65;1.48;;;24.70;40.20;;;;;;5143741;27;20031;-42
2022/05/22 02:57:03;;;;;;;3.45;1.55;;;24.70;40.20;;;;;;5144482;27;20011;-41
2022/05/22 02:59:33;;;;;;;4.03;1.58;;;24.70;40.30;;;;;;5144404;27;20035;-45
2022/05/22 03:01:59;;;;;;;3.60;1.70;;;24.70;40.20;;;;;;5143876;27;20016;-42
2022/05/22 03:04:25;;;;;;;4.53;2.00;;;24.70;40.30;;;;;;5143425;27;20011;-44
2022/05/22 03:06:51;;;;;;;3.20;1.50;;;24.70;40.30;;;;;;5142007;27;20042;-41
2022/05/22 03:09:17;;;;;;;5.35;1.80;;;24.70;40.40;;;;;;5142371;27;20098;-42
2022/05/22 03:11:43;;;;;;;4.13;1.73;;;24.70;40.40;;;;;;5143436;27;20080;-43
2022/05/22 03:14:09;;;;;;;2.80;1.55;;;24.60;40.40;;;;;;5142368;27;20015;-40
2022/05/22 03:16:35;;;;;;;4.35;1.90;;;24.60;40.40;;;;;;5142204;27;20023;-42
2022/05/22 03:19:03;;;;;;;3.22;1.52;;;24.60;40.40;;;;;;5141958;27;20019;-40
2022/05/22 03:21:29;;;;;;;3.45;1.52;;;24.60;40.40;;;;;;5143595;27;20064;-40
2022/05/22 03:23:55;;;;;;;3.40;1.63;;;24.70;40.50;;;;;;5143165;27;20085;-40
2022/05/22 03:26:21;;;;;;;2.50;1.60;;;24.60;40.40;;;;;;5141343;27;20477;-41
2022/05/22 03:28:47;;;;;;;3.60;1.65;;;24.70;40.60;;;;;;5142945;27;20030;-43
2022/05/22 03:31:12;;;;;;;3.10;1.63;;;24.60;40.50;;;;;;5142838;27;20529;-44
2022/05/22 03:33:39;;;;;;;3.70;1.77;;;24.60;40.50;;;;;;5142623;27;20028;-43
2022/05/22 03:36:05;;;;;;;2.20;1.20;;;24.60;40.60;;;;;;5141515;27;20033;-44
2022/05/22 03:38:31;;;;;;;2.35;1.40;;;24.60;40.60;;;;;;5140288;27;20032;-44
2022/05/22 03:40:58;;;;;;;3.85;1.40;;;24.60;40.60;;;;;;5142008;27;20011;-40
2022/05/22 03:43:24;;;;;;;2.90;1.70;;;24.60;40.60;;;;;;5142008;27;20041;-40
2022/05/22 03:45:50;;;;;;;3.88;1.75;;;24.60;40.60;;;;;;5141355;27;20022;-39
2022/05/22 03:48:16;;;;;;;4.68;1.83;;;24.60;40.60;;;;;;5123446;27;20011;-43
2022/05/22 03:50:42;;;;;;;4.15;1.73;;;24.60;40.70;;;;;;5141982;27;20019;-42
2022/05/22 03:53:08;;;;;;;2.25;1.50;;;24.60;40.60;;;;;;5142823;27;20381;-42
2022/05/22 03:55:34;;;;;;;3.42;1.80;;;24.60;40.60;;;;;;5142931;27;20054;-42
2022/05/22 03:58:00;;;;;;;3.75;1.60;;;24.60;40.60;;;;;;5144078;27;20015;-44
2022/05/22 04:00:26;;;;;;;3.00;1.45;;;24.60;40.60;;;;;;5143006;27;20022;-39
2022/05/22 04:02:52;;;;;;;2.65;1.63;;;24.60;40.70;;;;;;5142127;27;20384;-39
2022/05/22 04:05:18;;;;;;;2.90;1.70;;;24.60;40.60;;;;;;5140367;27;20022;-40
2022/05/22 04:07:45;;;;;;;2.35;1.60;;;24.60;40.60;;;;;;5140272;27;20015;-41
2022/05/22 04:10:12;;;;;;;3.40;1.60;;;24.50;40.70;;;;;;5141485;27;20023;-40
2022/05/22 04:12:39;;;;;;;3.60;1.90;;;24.60;40.70;;;;;;5141602;27;20071;-41
2022/05/22 04:15:07;;;;;;;3.05;1.80;;;24.60;40.60;;;;;;5140087;27;20538;-42
2022/05/22 04:17:33;;;;;;;3.33;1.83;;;24.60;40.60;;;;;;5140614;27;20064;-42
2022/05/22 04:19:59;;;;;;;4.55;1.63;;;24.70;40.60;;;;;;5140330;27;20019;-41
2022/05/22 04:22:25;;;;;;;3.72;1.60;;;24.70;40.50;;;;;;5140787;27;20119;-43
2022/05/22 04:27:40;;;;;;;3.00;1.55;;;24.70;40.30;;;;;;5141066;27;20041;-43
2022/05/22 04:30:07;;;;;;;2.67;1.60;;;24.80;40.20;;;;;;5139976;27;20064;-43
2022/05/22 04:32:33;;;;;;;3.30;1.50;;;24.80;40.10;;;;;;5141309;27;20018;-42
2022/05/22 04:34:59;;;;;;;2.45;1.30;;;24.90;40.00;;;;;;5141762;27;20037;-39
2022/05/22 04:37:25;;;;;;;3.28;1.70;;;24.90;39.90;;;;;;5141073;27;20031;-40
2022/05/22 04:39:51;;;;;;;3.58;1.58;;;24.90;39.80;;;;;;5140458;27;20023;-43
2022/05/22 04:42:17;;;;;;;3.40;1.38;;;24.90;39.70;;;;;;5139313;27;20469;-42
2022/05/22 04:44:42;;;;;;;3.33;1.40;;;25.00;39.70;;;;;;5140093;27;20039;-40
2022/05/22 04:47:09;;;;;;;3.03;1.60;;;25.00;39.60;;;;;;5141261;27;20063;-43
2022/05/22 04:49:35;;;;;;;2.83;1.30;;;25.00;39.60;;;;;;5140558;27;20519;-40
2022/05/22 04:52:00;;;;;;;3.40;1.60;;;25.00;39.50;;;;;;5139681;27;20011;-44
2022/05/22 04:54:27;;;;;;;2.80;1.40;;;25.00;39.50;;;;;;5140944;27;20019;-40
2022/05/22 04:56:55;;;;;;;2.58;1.45;;;25.00;39.50;;;;;;5139961;27;20118;-43
2022/05/22 04:59:21;;;;;;;3.03;1.52;;;25.10;39.40;;;;;;5140464;27;20027;-43
2022/05/22 05:01:47;;;;;;;1.95;1.38;;;25.10;39.20;;;;;;5141135;27;20016;-46
2022/05/22 05:04:13;;;;;;;3.05;1.50;;;25.10;39.20;;;;;;5140515;27;20019;-42
2022/05/22 05:06:42;;;;;;;2.63;1.40;;;25.20;39.20;;;;;;5140599;27;20473;-43
2022/05/22 05:09:08;;;;;;;2.65;1.40;;;25.20;39.10;;;;;;5139984;27;20025;-45
2022/05/22 05:11:34;;;;;;;2.38;1.50;;;25.20;39.00;;;;;;5140216;27;20019;-44
2022/05/22 05:14:00;;;;;;;2.20;1.55;;;25.30;39.10;;;;;;5140372;27;20030;-40
2022/05/22 05:16:26;;;;;;;2.85;1.70;;;25.30;39.10;;;;;;5138995;27;20016;-42
2022/05/22 05:18:52;;;;;;;2.40;1.58;;;25.30;39.10;;;;;;5137247;27;20031;-43
2022/05/22 05:21:18;;;;;;;2.22;1.40;;;25.40;39.00;;;;;;5138520;27;20063;-41
2022/05/22 05:23:45;;;;;;;2.47;1.48;;;25.50;39.00;;;;;;5137984;27;20026;-40
2022/05/22 05:26:11;;;;;;;2.85;1.48;;;25.50;38.90;;;;;;5137926;27;20022;-41
2022/05/22 05:28:37;;;;;;;2.72;1.30;;;25.50;38.80;;;;;;5140681;27;20377;-42
2022/05/22 05:31:03;;;;;;;1.88;1.20;;;25.60;38.70;;;;;;5141288;27;20096;-41
2022/05/22 05:33:32;;;;;;;3.72;1.50;;;25.70;38.60;;;;;;5139369;27;20023;-44
2022/05/22 05:35:58;;;;;;;2.22;1.38;;;25.70;38.40;;;;;;5139804;27;20011;-44
2022/05/22 05:38:24;;;;;;;2.63;1.27;;;25.80;38.40;;;;;;5138897;27;20083;-40
2022/05/22 05:40:50;;;;;;;3.15;1.33;;;25.90;38.30;;;;;;5139238;27;20031;-41
2022/05/22 05:43:16;;;;;;;2.55;1.42;;;25.90;38.20;;;;;;5138115;27;20504;-41
2022/05/22 05:45:43;;;;;;;2.53;1.55;;;26.00;38.00;;;;;;5139206;27;20035;-42
2022/05/22 05:48:09;;;;;;;2.53;1.30;;;26.10;38.00;;;;;;5139473;27;20014;-42
2022/05/22 05:50:42;;;;;;;2.92;1.65;;;26.10;37.80;;;;;;5139094;28;20016;-44
2022/05/22 05:53:10;;;;;;;2.47;1.50;;;26.20;37.70;;;;;;5138448;27;20064;-44
2022/05/22 05:55:37;;;;;;;2.30;1.65;;;26.30;37.50;;;;;;5139565;27;20015;-43
2022/05/22 05:58:03;;;;;;;2.05;1.30;;;26.40;37.40;;;;;;5138072;28;20390;-43
2022/05/22 06:00:29;;;;;;;2.75;1.48;;;26.50;37.20;;;;;;5138894;27;20015;-40
2022/05/22 06:02:54;;;;;;;2.40;1.50;;;26.60;37.00;;;;;;5123934;27;20462;-40
2022/05/22 06:05:21;;;;;;;1.95;1.20;;;26.70;36.90;;;;;;5141663;27;20018;-41
2022/05/22 06:07:51;;;;;;;3.90;1.30;;;26.80;36.70;;;;;;5142475;27;20026;-42
2022/05/22 06:10:17;;;;;;;2.53;1.52;;;26.90;36.70;;;;;;5143061;27;20043;-40
2022/05/22 06:12:43;;;;;;;1.95;1.23;;;26.90;36.60;;;;;;5142622;27;20039;-39
2022/05/22 06:15:09;;;;;;;2.38;1.15;;;27.00;36.60;;;;;;5140834;27;20038;-39
2022/05/22 06:17:36;;;;;;;2.03;1.20;;;27.10;36.50;;;;;;5141606;27;20023;-43
2022/05/22 06:20:06;;;;;;;3.08;1.45;;;27.10;36.40;;;;;;5143305;27;20019;-43
2022/05/22 06:22:33;;;;;;;2.17;1.20;;;27.30;36.30;;;;;;5142754;27;20046;-38
2022/05/22 06:24:58;;;;;;;2.90;1.50;;;27.40;36.00;;;;;;5142259;27;20011;-41
2022/05/22 06:27:25;;;;;;;2.67;1.20;;;27.60;35.80;;;;;;5139950;27;20481;-40
2022/05/22 06:29:51;;;;;;;2.30;1.30;;;27.70;35.50;;;;;;5140284;27;20022;-39
2022/05/22 06:32:18;;;;;;;3.10;1.35;;;27.80;35.30;;;;;;5143002;27;20462;-40
2022/05/22 06:34:44;;;;;;;2.35;1.10;;;28.00;35.10;;;;;;5141365;27;20022;-45
2022/05/22 06:37:12;;;;;;;2.25;1.10;;;28.20;35.00;;;;;;5141094;27;20094;-42
2022/05/22 06:39:50;;;;;;;3.13;1.40;;;28.20;34.70;;;;;;5138994;27;20019;-38
2022/05/22 06:42:17;;;;;;;2.30;1.13;;;28.40;34.60;;;;;;5139176;27;20374;-39
2022/05/22 06:44:43;;;;;;;2.67;1.38;;;28.50;34.30;;;;;;5139373;27;20019;-40
2022/05/22 06:47:09;;;;;;;2.60;1.20;;;28.60;34.20;;;;;;5140086;27;20465;-39
2022/05/22 06:49:35;;;;;;;2.30;1.20;;;28.70;34.00;;;;;;5139156;27;20504;-39
2022/05/22 06:52:01;;;;;;;2.10;1.13;;;28.90;34.00;;;;;;5140561;27;20509;-40
2022/05/22 06:54:30;;;;;;;3.03;1.65;;;28.90;33.80;;;;;;5138883;27;20011;-39
2022/05/22 06:56:57;;;;;;;4.18;1.40;;;28.90;33.70;;;;;;5139421;27;20047;-41
2022/05/22 06:59:23;;;;;;;2.55;1.20;;;29.10;34.10;;;;;;5139081;27;20051;-38
2022/05/22 07:01:49;;;;;;;2.10;1.30;;;29.20;33.50;;;;;;5138875;27;20365;-43
2022/05/22 07:04:15;;;;;;;3.08;1.40;;;29.20;33.30;;;;;;5138361;27;20012;-38
2022/05/22 07:06:40;;;;;;;2.75;1.58;;;29.30;33.20;;;;;;5136825;27;20016;-39
2022/05/22 07:09:07;;;;;;;2.00;1.20;;;29.30;33.10;;;;;;5138353;27;20020;-40
2022/05/22 07:11:38;;;;;;;2.65;1.20;;;29.40;33.00;;;;;;5137692;27;20046;-40
2022/05/22 07:14:09;;;;;;;1.65;1.00;;;29.50;32.90;;;;;;5136757;27;20027;-39
2022/05/22 07:16:35;;;;;;;;;;;29.60;32.80;;;;;;5138798;27;20012;-38
2022/05/22 07:19:03;;;;;;;2.38;1.27;;;29.60;32.70;;;;;;5139695;27;19907;-39
2022/05/22 07:21:30;;;;;;;2.20;1.17;;;29.70;32.70;;;;;;5139280;27;20053;-37
2022/05/22 07:23:56;;;;;;;3.35;1.23;;;29.80;32.60;;;;;;5139393;27;20011;-39
2022/05/22 07:26:24;;;;;;;2.55;1.20;;;29.80;32.40;;;;;;5139296;27;20102;-39
2022/05/22 07:28:50;;;;;;;2.42;1.10;;;29.80;32.40;;;;;;5139429;27;20011;-39
2022/05/22 07:31:16;;;;;;;3.33;1.27;;;29.90;32.30;;;;;;5139587;27;20012;-39
2022/05/22 07:33:42;;;;;;;3.10;1.17;;;30.00;32.30;;;;;;5138004;27;20044;-40
2022/05/22 07:36:08;;;;;;;2.13;1.10;;;30.00;32.20;;;;;;5139397;27;20023;-40
2022/05/22 07:38:34;;;;;;;2.55;1.33;;;30.00;32.00;;;;;;5138155;27;20031;-39
2022/05/22 07:40:59;;;;;;;2.53;1.33;;;30.10;32.00;;;;;;5140871;27;20016;-39
2022/05/22 07:43:25;;;;;;;2.10;1.20;;;30.10;32.00;;;;;;5139588;27;20516;-40
2022/05/22 07:45:51;;;;;;;3.08;1.27;;;30.20;31.90;;;;;;5140622;27;20419;-44
2022/05/22 07:48:17;;;;;;;2.55;1.20;;;30.30;31.80;;;;;;5138325;27;20046;-41
2022/05/22 07:50:43;;;;;;;2.72;1.13;;;30.30;31.70;;;;;;5139267;27;20019;-40
2022/05/22 07:53:11;;;;;;;2.38;1.05;;;30.30;31.60;;;;;;5137797;27;20027;-40
2022/05/22 07:55:39;;;;;;;2.23;1.30;;;30.30;31.60;;;;;;5138214;27;20019;-41
2022/05/22 07:58:05;;;;;;;1.50;0.90;;;30.40;31.50;;;;;;5139767;27;20260;-41
2022/05/22 08:00:31;;;;;;;2.10;0.98;;;30.40;31.50;;;;;;5140455;27;20023;-42
2022/05/22 08:02:56;;;;;;;2.15;1.00;;;30.50;31.50;;;;;;5138643;27;20484;-46
2022/05/22 08:05:23;;;;;;;3.00;1.15;;;30.50;31.40;;;;;;5138448;27;20019;-41
2022/05/22 08:07:49;;;;;;;2.55;1.15;;;30.50;31.30;;;;;;5137872;27;20106;-41
2022/05/22 08:10:15;;;;;;;2.40;0.95;;;30.50;31.30;;;;;;5140314;27;20047;-45
2022/05/22 08:12:47;;;;;;;2.70;1.02;;;30.60;31.30;;;;;;5139940;27;20026;-42
2022/05/22 08:15:15;;;;;;;2.22;0.90;;;30.60;31.20;;;;;;5140380;27;20015;-42
2022/05/22 08:17:41;;;;;;;3.28;1.20;;;30.70;31.20;;;;;;5138964;27;20023;-48
2022/05/22 08:20:09;;;;;;;2.33;1.10;;;30.60;31.10;;;;;;5137783;27;20050;-42
2022/05/22 08:22:35;;;;;;;2.67;0.93;;;30.70;31.10;;;;;;5137510;27;20062;-42
2022/05/22 08:25:01;;;;;;;3.15;1.42;;;30.70;31.00;;;;;;5137754;27;20469;-45
2022/05/22 08:27:28;;;;;;;2.15;1.00;;;30.70;30.90;;;;;;5137818;27;20012;-42
2022/05/22 08:29:54;;;;;;;1.92;1.10;;;30.70;30.80;;;;;;5138629;27;20060;-45
2022/05/22 08:32:20;;;;;;;2.50;0.90;;;30.80;30.80;;;;;;5138231;27;20016;-45
2022/05/22 08:34:46;;;;;;;2.10;1.00;;;30.80;30.80;;;;;;5138146;27;20029;-48
2022/05/22 08:37:11;;;;;;;2.08;0.82;;;30.80;30.70;;;;;;5137274;27;20375;-42
2022/05/22 08:39:37;;;;;;;2.92;1.10;;;30.80;30.70;;;;;;5138431;27;20485;-43
2022/05/22 08:42:09;;;;;;;2.15;0.85;;;30.80;30.70;;;;;;5138623;27;20524;-43
2022/05/22 08:44:35;;;;;;;2.80;1.10;;;30.80;30.70;;;;;;5139336;27;20099;-48
2022/05/22 08:47:27;;;;;;;2.03;1.08;;;30.80;30.70;;;;;;5138589;27;20031;-43
2022/05/22 08:49:59;;;;;;;3.35;1.13;;;30.80;30.60;;;;;;5125137;27;20038;-45
2022/05/22 08:52:36;;;;;;;2.08;1.05;;;30.90;30.60;;;;;;5101951;27;20005;-43
2022/05/22 08:55:10;;;;;;;3.45;1.10;;;30.90;30.50;;;;;;5136501;27;20015;-43
2022/05/22 09:00:27;;;;;;;2.63;1.00;;;30.90;30.50;;;;;;5135878;27;20026;-46
2022/05/22 09:03:00;;;;;;;2.25;1.20;;;30.90;30.50;;;;;;5135987;27;20019;-45
2022/05/22 09:05:28;;;;;;;3.15;1.08;;;30.90;30.50;;;;;;5120660;27;20052;-47
2022/05/22 09:08:14;;;;;;;2.25;1.10;;;30.90;30.60;;;;;;5138833;27;20018;-48
2022/05/22 09:10:58;;;;;;;2.35;1.15;;;30.90;30.50;;;;;;5139730;27;20015;-45
2022/05/22 09:13:45;;;;;;;1.95;0.88;;;30.90;30.50;;;;;;5139642;27;20031;-45
2022/05/22 09:16:23;;;;;;;2.50;0.90;;;30.90;30.50;;;;;;5140456;27;20022;-42
2022/05/22 09:19:01;;;;;;;2.67;0.97;;;30.90;30.50;;;;;;5136686;27;20031;-44
2022/05/22 09:21:31;;;;;;;2.22;0.93;;;30.90;30.50;;;;;;5137009;27;20122;-44
2022/05/22 09:24:17;;;;;;;1.58;0.80;;;30.90;30.50;;;;;;5135893;27;20060;-48
2022/05/22 09:26:49;;;;;;;2.55;0.88;;;30.90;30.50;;;;;;5136488;27;20019;-46
2022/05/22 09:29:29;;;;;;;2.30;0.80;;;30.90;30.50;;;;;;5135715;27;20034;-45
2022/05/22 09:32:10;;;;;;;1.70;0.85;;;30.80;30.50;;;;;;5136893;27;20027;-44
2022/05/22 09:34:59;;;;;;;2.80;1.02;;;30.80;30.60;;;;;;5137017;27;20090;-46
2022/05/22 09:37:42;;;;;;;1.85;0.90;;;30.80;30.50;;;;;;5137014;27;20489;-43
2022/05/22 09:40:10;;;;;;;2.80;1.13;;;30.80;30.60;;;;;;5121740;28;20054;-47
2022/05/22 09:42:54;;;;;;;1.40;0.70;;;30.70;30.50;;;;;;5139646;27;20330;-48
2022/05/22 09:45:44;;;;;;;2.67;1.00;;;30.70;30.60;;;;;;5140074;27;20012;-46
2022/05/22 09:48:33;;;;;;;2.10;1.10;;;30.70;30.60;;;;;;5139483;27;20015;-44
2022/05/22 09:51:09;;;;;;;1.75;0.70;;;30.70;30.70;;;;;;5138135;27;20546;-42
2022/05/22 09:54:09;;;;;;;2.83;0.80;;;30.70;30.70;;;;;;5120205;28;20020;-50
2022/05/22 09:56:56;;;;;;;2.70;1.00;;;30.60;30.70;;;;;;5138936;28;20454;-50
2022/05/22 09:59:40;;;;;;;2.63;0.93;;;30.60;30.80;;;;;;5139393;27;20073;-51
2022/05/22 10:02:27;;;;;;;2.45;0.90;;;30.60;30.80;;;;;;5138799;28;20466;-50
2022/05/22 10:05:18;;;;;;;2.38;0.95;;;30.50;30.80;;;;;;5137790;27;20022;-47
2022/05/22 10:07:53;;;;;;;1.73;0.75;;;30.50;30.90;;;;;;5135996;27;20015;-48
2022/05/22 10:10:43;;;;;;;2.40;0.90;;;30.50;31.00;;;;;;5135952;28;20019;-42
2022/05/22 10:13:50;;;;;;;2.90;0.80;;;30.30;31.00;;;;;;5136013;28;20039;-45
2022/05/22 10:16:37;;;;;;;4.93;0.88;;;30.30;31.20;;;;;;5135394;28;20019;-41
2022/05/22 10:19:25;;;;;;;2.92;0.80;;;30.20;31.30;;;;;;5136230;28;20023;-45
2022/05/22 10:22:12;;;;;;;2.97;0.95;;;30.20;31.40;;;;;;5121236;28;20041;-47
2022/05/22 10:25:20;;;;;;;1.20;0.60;;;30.20;31.40;;;;;;5137251;28;20037;-45
2022/05/22 10:28:06;;;;;;;2.65;1.10;;;30.10;31.40;;;;;;5136104;28;20019;-48
2022/05/22 10:30:57;;;;;;;2.38;1.00;;;30.10;31.50;;;;;;5119798;28;20060;-50
2022/05/22 10:33:37;;;;;;;4.22;1.50;;;30.10;31.60;;;;;;5137201;27;20499;-46
2022/05/22 10:36:18;;;;;;;3.05;1.15;;;30.00;31.50;;;;;;5138617;27;20059;-43
2022/05/22 10:38:48;;;;;;;1.60;0.70;;;30.00;31.60;;;;;;5138600;27;20023;-45
2022/05/22 10:44:27;;;;;;;2.25;0.90;;;29.90;31.70;;;;;;5113826;27;20099;-44
2022/05/22 10:46:57;;;;;;;1.90;0.75;;;29.90;31.80;;;;;;5136202;27;20023;-43
2022/05/22 10:49:35;;;;;;;2.03;1.00;;;29.80;31.70;;;;;;5138286;27;20015;-43
2022/05/22 10:52:03;;;;;;;2.30;0.90;;;29.80;31.80;;;;;;5137803;27;20046;-42
2022/05/22 10:54:30;;;;;;;1.83;0.85;;;29.70;31.80;;;;;;5138551;27;20016;-43
2022/05/22 10:59:54;;;;;;;2.08;1.10;;;29.60;32.00;;;;;;5138001;27;20052;-43
2022/05/22 11:02:26;;;;;;;2.33;0.77;;;29.60;32.10;;;;;;5137950;27;20086;-43
2022/05/22 11:04:54;;;;;;;1.38;0.80;;;29.50;32.10;;;;;;5137891;27;20010;-42
2022/05/22 11:07:43;;;;;;;1.92;0.95;;;29.50;32.20;;;;;;5137086;27;20465;-43
2022/05/22 11:10:25;;;;;;;2.10;0.90;;;29.40;32.20;;;;;;5137589;27;20118;-42
2022/05/22 11:13:03;;;;;;;3.10;1.33;;;29.30;32.30;;;;;;5137553;27;20073;-42
2022/05/22 11:15:31;;;;;;;1.75;0.80;;;29.30;32.40;;;;;;5137066;27;20011;-42
2022/05/22 11:18:09;;;;;;;2.08;0.88;;;29.30;32.40;;;;;;5136105;27;20019;-43
2022/05/22 11:20:39;;;;;;;2.20;0.95;;;29.20;32.40;;;;;;5135975;27;20118;-43
2022/05/22 11:23:17;;;;;;;2.63;1.10;;;29.20;32.50;;;;;;5118869;27;20016;-42
2022/05/22 11:26:05;;;;;;;1.50;0.90;;;29.10;32.60;;;;;;5136433;27;20957;-46
2022/05/22 11:28:50;;;;;;;2.05;0.85;;;29.00;32.60;;;;;;5138166;27;20024;-43
2022/05/22 11:31:46;;;;;;;3.08;1.08;;;29.00;32.70;;;;;;5136535;27;20023;-44
2022/05/22 11:34:24;;;;;;;1.85;0.90;;;28.90;32.80;;;;;;5138183;27;20026;-45
2022/05/22 11:37:02;;;;;;;2.15;0.80;;;28.90;32.90;;;;;;5137289;27;20492;-42
2022/05/22 11:39:34;;;;;;;3.10;0.75;;;28.80;32.90;;;;;;5138317;27;20140;-43
2022/05/22 11:42:11;;;;;;;2.00;0.80;;;28.80;33.00;;;;;;5137659;27;20023;-40
2022/05/22 11:44:52;;;;;;;2.50;1.08;;;28.70;33.00;;;;;;5137607;27;20011;-41
2022/05/22 11:47:29;;;;;;;1.77;0.88;;;28.70;33.10;;;;;;5137163;27;20084;-40
2022/05/22 11:50:16;;;;;;;1.50;0.80;;;28.60;33.10;;;;;;5136474;27;20488;-40
2022/05/22 11:53:06;;;;;;;2.38;1.10;;;28.60;33.30;;;;;;5136737;27;20080;-40
2022/05/22 11:55:59;;;;;;;2.17;0.98;;;28.50;33.30;;;;;;5136391;27;20488;-41
2022/05/22 11:58:43;;;;;;;3.08;1.13;;;28.40;33.20;;;;;;5136605;27;20049;-40
2022/05/22 12:01:18;;;;;;;1.77;0.82;;;28.40;33.40;;;;;;5134822;27;20007;-40
2022/05/22 12:03:47;;;;;;;2.22;0.98;;;28.40;33.50;;;;;;5138074;27;20469;-41
2022/05/22 12:06:37;;;;;;;2.70;1.02;;;28.30;33.50;;;;;;5139073;27;20020;-42
2022/05/22 12:09:11;;;;;;;1.80;0.93;;;28.30;33.50;;;;;;5138285;27;20051;-41
2022/05/22 12:11:59;;;;;;;2.72;1.00;;;28.20;33.60;;;;;;5121044;27;20007;-40
2022/05/22 12:14:43;;;;;;;2.67;1.10;;;28.20;33.70;;;;;;5138458;27;20019;-44
2022/05/22 12:17:14;;;;;;;1.83;0.80;;;28.20;33.60;;;;;;5138964;27;20015;-40
2022/05/22 12:20:10;;;;;;;1.38;0.80;;;28.20;33.70;;;;;;5137512;27;20027;-41
2022/05/22 12:25:25;;;;;;;2.80;1.00;;;28.10;33.70;;;;;;5122169;27;20054;-39
2022/05/22 12:27:52;;;;;;;2.33;0.88;;;28.10;33.80;;;;;;5136940;27;20469;-38
2022/05/22 12:30:31;;;;;;;1.95;0.90;;;28.10;33.90;;;;;;5119056;27;20041;-39
2022/05/22 12:33:31;;;;;;;2.60;1.00;;;28.00;33.80;;;;;;5136766;27;20534;-38
2022/05/22 12:35:57;;;;;;;;;;;28.00;33.80;;;;;;5137491;27;20129;-37
2022/05/22 12:38:23;;;;;;;2.13;0.80;;;28.00;33.80;;;;;;5137638;27;19936;-38
2022/05/22 12:41:00;;;;;;;2.45;1.00;;;27.90;33.80;;;;;;5137338;27;20373;-38
2022/05/22 12:43:26;;;;;;;2.42;1.10;;;27.90;33.80;;;;;;5139271;27;20011;-38
2022/05/22 12:45:54;;;;;;;1.48;0.88;;;27.90;33.80;;;;;;5138411;27;20545;-38
2022/05/22 12:48:32;;;;;;;1.55;0.80;;;27.90;33.80;;;;;;5138337;27;20015;-40
2022/05/22 12:51:10;;;;;;;1.95;1.10;;;27.90;33.90;;;;;;5138027;27;20038;-43
2022/05/22 12:53:38;;;;;;;1.75;0.85;;;27.90;33.90;;;;;;5139025;27;20034;-38
2022/05/22 12:56:29;;;;;;;2.45;0.95;;;27.90;33.80;;;;;;5137555;27;20011;-38
2022/05/22 12:58:58;;;;;;;1.83;0.88;;;27.90;33.90;;;;;;5137559;27;20039;-41
2022/05/22 13:01:45;;;;;;;2.08;1.10;;;27.90;33.90;;;;;;5137948;27;20014;-39
2022/05/22 13:04:29;;;;;;;2.28;1.10;;;27.90;33.90;;;;;;5137261;27;20012;-39
2022/05/22 13:07:17;;;;;;;2.58;1.02;;;27.80;33.90;;;;;;5138368;27;20023;-39
2022/05/22 13:09:45;;;;;;;2.85;1.20;;;27.90;34.00;;;;;;5137971;27;20407;-39
2022/05/22 13:12:24;;;;;;;2.75;1.10;;;27.80;33.90;;;;;;5136657;27;20086;-38
2022/05/22 13:14:59;;;;;;;2.22;0.95;;;27.80;33.90;;;;;;5136694;27;20046;-38
2022/05/22 13:17:39;;;;;;;2.20;0.98;;;27.80;33.90;;;;;;5137007;27;20390;-39
2022/05/22 13:20:08;;;;;;;3.25;1.33;;;27.80;34.00;;;;;;5137260;27;20027;-41
2022/05/22 13:22:38;;;;;;;1.98;0.93;;;27.80;34.00;;;;;;5135502;27;20031;-40
2022/05/22 13:25:08;;;;;;;2.38;0.98;;;27.80;34.00;;;;;;5137116;27;20036;-39
2022/05/22 13:27:38;;;;;;;2.28;0.90;;;27.80;34.00;;;;;;5136573;27;20023;-40